Latest Weather Observations for Busselton Airport

IDW60801

Issued at 2:43 pm WST Tuesday 16 August 2022 (issued every 10 minutes, with the page automatically refreshed every 10 minutes)

About weather observations | Map of weather stations | Latest weather observations for WA | Other Formats
Station Details ID: 009603 Name: BUSSELTON AERO Lat: -33.68 Lon: 115.40 Height: 16.3 m
Data from the previous 72 hours. | See also: Recent months at Busselton Airport
Date/Time
WST
Temp
°C
App
Temp
°C
Dew
Point
°C
Rel
Hum
%
Delta-T
°C
Wind Press
QNH
hPa
Press
MSL
hPa
Rain since
9am
mm
Dir  Spd
km/h
Gust
km/h
Spd
kts
Gust
kts
16/02:30pm 15.9 10.8 9.3 65 3.4 WNW 26 39 14 21 1003.5 1003.5 0.0
16/02:27pm 15.6 10.1 9.3 66 3.3 WNW 28 46 15 25 1003.5 1003.5 0.0
16/02:00pm 16.8 9.2 7.4 54 4.7 W 37 50 20 27 1003.2 1003.2 0.0
16/01:30pm 17.0 10.3 8.2 56 4.5 W 33 48 18 26 1003.3 1003.3 0.0
16/01:23pm 17.1 10.7 9.3 60 4.1 W 33 52 18 28 1003.3 1003.3 0.0
16/01:00pm 17.3 10.4 8.7 57 4.5 W 35 52 19 28 1003.2 1003.2 0.0
16/12:55pm 16.6 10.4 7.8 56 4.4 W 30 52 16 28 1003.3 1003.3 0.0
16/12:30pm 15.7 9.1 8.4 62 3.7 W 33 46 18 25 1003.4 1003.4 0.0
16/12:11pm 16.9 11.3 8.8 59 4.2 WNW 28 50 15 27 1003.4 1003.4 0.0
16/12:00pm 16.7 11.5 10.3 66 3.4 WNW 28 41 15 22 1003.5 1003.5 0.0
16/11:30am 16.2 10.1 9.6 65 3.4 W 32 43 17 23 1003.4 1003.4 0.0
16/11:00am 15.7 11.1 9.8 68 3.1 W 24 35 13 19 1003.5 1003.5 0.0
16/10:30am 14.9 10.0 10.1 73 2.5 W 26 37 14 20 1003.7 1003.7 0.0
16/10:00am 15.7 10.7 9.4 66 3.3 W 26 37 14 20 1003.3 1003.3 0.0
16/09:30am 15.5 12.0 10.9 74 2.4 W 20 28 11 15 1003.2 1003.2 0.0
16/09:00am 14.6 11.1 10.8 78 2.0 WNW 20 28 11 15 1002.9 1002.9 9.6
16/08:30am 15.2 11.0 9.8 70 2.8 W 22 30 12 16 1003.0 1003.0 9.6
16/08:00am 15.1 11.4 10.1 72 2.6 W 20 30 11 16 1002.2 1002.2 9.6
16/07:30am 14.9 11.9 10.5 75 2.3 W 17 22 9 12 1001.9 1001.9 9.6
16/07:00am 15.1 11.9 11.1 77 2.1 W 19 24 10 13 1001.6 1001.6 9.6
16/06:30am 15.1 12.5 12.1 82 1.6 W 17 24 9 13 1001.6 1001.6 9.6
16/06:00am 15.1 13.3 12.2 83 1.6 WNW 13 17 7 9 1001.2 1001.2 9.6
16/05:30am 15.2 13.5 12.3 83 1.6 W 13 19 7 10 1001.0 1001.0 9.6
16/05:00am 15.5 13.0 12.4 82 1.7 W 17 24 9 13 1000.7 1000.7 9.6
16/04:30am 15.2 13.1 12.5 84 1.5 W 15 19 8 10 1000.7 1000.7 9.6
16/04:00am 15.4 13.1 12.9 85 1.4 W 17 24 9 13 1000.7 1000.7 9.6
16/03:30am 15.5 13.2 14.0 91 0.8 W 19 24 10 13 1001.0 1001.0 9.6
16/03:21am 15.4 13.5 14.3 93 0.6 W 17 22 9 12 1000.1 1000.1 9.6
16/03:00am 15.8 12.2 14.3 91 0.9 W 26 39 14 21 1001.0 1001.0 9.6
16/02:47am 16.1 12.8 15.1 94 0.6 WNW 26 41 14 22 1000.5 1000.5 9.6
16/02:30am 16.2 14.8 15.6 96 0.4 WNW 17 24 9 13 999.9 999.9 9.6
16/02:00am 16.2 14.4 16.0 99 0.1 WNW 20 28 11 15 1000.3 1000.3 9.6
16/01:30am 16.6 14.0 16.0 96 0.4 WNW 24 32 13 17 999.7 999.7 9.4
16/01:11am 16.9 15.0 16.7 99 0.1 WNW 22 33 12 18 999.8 999.8 9.4
16/01:05am 17.0 15.1 16.8 99 0.1 NW 22 32 12 17 999.7 999.7 9.4
16/01:00am 17.1 14.2 17.1 100 0.0 NW 28 43 15 23 999.5 999.5 9.4
16/12:30am 16.5 12.6 16.5 100 0.0 N 32 43 17 23 999.3 999.3 9.4
16/12:00am 15.8 11.9 15.6 99 0.1 NNE 30 44 16 24 999.6 999.6 9.4
 
Date/Time
WST
Temp
°C
App
Temp
°C
Dew
Point
°C
Rel
Hum
%
Delta-T
°C
Wind Press
QNH
hPa
Press
MSL
hPa
Rain since
9am
mm
Dir  Spd
km/h
Gust
km/h
Spd
kts
Gust
kts
15/11:45pm 15.7 11.8 15.5 99 0.1 NNE 30 43 16 23 999.7 999.7 9.2
15/11:30pm 15.5 11.2 15.3 99 0.1 NNE 32 43 17 23 999.8 999.8 9.2
15/11:23pm 15.5 11.5 15.3 99 0.1 NNE 30 43 16 23 1000.1 1000.1 9.2
15/11:00pm 15.2 11.1 15.0 99 0.1 NNE 30 41 16 22 1000.5 1000.5 9.2
15/10:30pm 14.9 11.9 14.7 99 0.1 NNE 24 33 13 18 1001.6 1001.6 8.6
15/10:00pm 14.4 13.3 14.4 100 0.0 NNE 13 19 7 10 1002.2 1002.2 8.0
15/09:54pm 14.4 13.0 14.4 100 0.0 NE 15 19 8 10 1002.1 1002.1 7.8
15/09:30pm 14.6 13.5 14.4 99 0.1 NE 13 20 7 11 1003.1 1003.1 6.4
15/09:00pm 14.8 13.8 14.6 99 0.1 NNE 13 17 7 9 1004.2 1004.2 4.2
15/08:30pm 15.0 13.0 13.9 93 0.6 NNE 17 22 9 12 1004.4 1004.4 3.4
15/08:00pm 15.0 12.6 13.7 92 0.7 NNE 19 26 10 14 1005.0 1005.0 3.2
15/07:30pm 14.8 14.2 14.5 98 0.2 NNE 11 15 6 8 1005.2 1005.2 2.4
15/07:00pm 15.1 13.2 14.3 95 0.5 ENE 17 20 9 11 1004.8 1004.8 1.8
15/06:30pm 15.5 14.4 14.2 92 0.7 NNE 13 17 7 9 1005.4 1005.4 0.8
15/06:00pm 16.3 14.3 14.0 86 1.3 NNE 17 24 9 13 1005.7 1005.7 0.2
15/05:30pm 16.7 14.1 13.8 83 1.6 NNE 20 28 11 15 1005.9 1005.9 0.0
15/05:00pm 17.0 14.1 14.1 83 1.7 NNE 22 28 12 15 1006.0 1006.0 0.0
15/04:30pm 17.0 14.5 14.1 83 1.7 NNE 20 26 11 14 1006.3 1006.3 0.0
15/04:00pm 17.3 14.8 14.0 81 1.9 N 20 30 11 16 1006.4 1006.4 0.0
15/03:30pm 17.7 14.4 14.0 79 2.1 N 24 32 13 17 1006.8 1006.8 0.0
15/03:00pm 17.3 14.8 14.2 82 1.8 N 20 30 11 16 1007.7 1007.7 0.0
15/02:30pm 17.4 14.1 13.9 80 2.0 N 24 33 13 18 1008.2 1008.2 0.0
15/02:00pm 18.2 14.5 13.9 76 2.5 N 26 35 14 19 1007.9 1007.9 0.0
15/01:30pm 18.1 15.1 13.6 75 2.6 N 22 30 12 16 1008.7 1008.7 0.0
15/01:00pm 17.3 13.6 12.6 74 2.6 N 24 32 13 17 1009.3 1009.3 0.0
15/12:30pm 17.3 12.8 11.3 68 3.3 N 26 35 14 19 1009.8 1009.8 0.0
15/12:00pm 17.9 13.6 11.9 68 3.3 N 26 37 14 20 1009.8 1009.8 0.0
15/11:30am 17.0 11.8 10.4 65 3.5 N 28 37 15 20 1010.4 1010.4 0.0
15/11:00am 16.8 10.7 9.7 63 3.7 NNE 32 41 17 22 1010.7 1010.7 0.0
15/10:30am 16.9 10.7 9.3 61 4.0 NNE 32 41 17 22 1011.0 1011.0 0.0
15/10:00am 17.1 12.2 9.8 62 3.8 NNE 26 37 14 20 1011.4 1011.4 0.0
15/09:30am 16.2 12.3 9.6 65 3.4 NNE 20 26 11 14 1011.8 1011.8 0.0
15/09:00am 14.8 10.3 8.7 67 3.1 NE 22 30 12 16 1012.0 1012.0 -
15/08:30am 13.8 9.7 8.6 71 2.6 NE 20 24 11 13 1012.4 1012.4 -
15/08:00am 13.5 8.6 8.4 71 2.5 NE 24 30 13 16 1012.5 1012.5 -
15/07:30am 13.0 8.4 8.1 72 2.4 NE 22 28 12 15 1012.4 1012.4 -
15/07:00am 13.0 8.0 8.1 72 2.4 NE 24 30 13 16 1012.5 1012.5 -
15/06:30am 12.9 7.9 8.0 72 2.4 NE 24 30 13 16 1012.7 1012.7 -
15/06:00am 12.7 8.1 8.0 73 2.3 NE 22 28 12 15 1012.9 1012.9 -
15/05:30am 12.7 7.7 8.2 74 2.2 NE 24 28 13 15 1013.1 1013.1 -
15/05:00am 12.2 8.6 8.5 78 1.8 NE 17 20 9 11 1013.4 1013.4 -
15/04:30am 11.4 8.2 8.4 82 1.5 NE 15 19 8 10 1013.6 1013.6 -
15/04:00am 10.3 8.6 8.2 87 1.0 ENE 7 9 4 5 1013.7 1013.7 -
15/03:30am 10.1 7.9 8.0 87 1.0 E 9 11 5 6 1013.9 1013.9 -
15/03:00am 10.9 9.3 8.1 83 1.4 ENE 6 9 3 5 1014.3 1014.3 0.0
15/02:30am 10.4 8.3 8.2 86 1.1 E 9 11 5 6 1014.9 1014.9 -
15/02:00am 10.5 8.8 8.3 86 1.1 ESE 7 9 4 5 1015.4 1015.4 -
15/01:30am 10.8 8.7 8.2 84 1.3 E 9 11 5 6 1015.8 1015.8 -
15/01:00am 10.5 8.4 8.4 87 1.0 ENE 9 11 5 6 1016.1 1016.1 -
15/12:30am 10.4 8.9 8.5 88 0.9 NE 6 7 3 4 1016.5 1016.5 -
15/12:00am 10.1 7.5 7.9 86 1.1 ENE 11 13 6 7 1016.5 1016.5 -
 
Date/Time
WST
Temp
°C
App
Temp
°C
Dew
Point
°C
Rel
Hum
%
Delta-T
°C
Wind Press
QNH
hPa
Press
MSL
hPa
Rain since
9am
mm
Dir  Spd
km/h
Gust
km/h
Spd
kts
Gust
kts
14/11:30pm 10.8 7.9 8.2 84 1.3 ENE 13 15 7 8 1016.6 1016.6 -
14/11:00pm 10.3 7.8 8.2 87 1.0 ENE 11 13 6 7 1016.9 1016.9 -
14/10:30pm 10.1 7.2 8.0 87 1.0 ENE 13 15 7 8 1017.1 1017.1 -
14/10:00pm 9.9 7.0 8.0 88 0.9 ENE 13 15 7 8 1017.3 1017.3 -
14/09:30pm 9.6 6.6 7.7 88 0.9 ENE 13 13 7 7 1017.5 1017.5 -
14/09:00pm 9.7 7.1 7.8 88 0.9 ENE 11 13 6 7 1017.5 1017.5 -
14/08:30pm 9.5 6.8 7.4 87 1.0 E 11 13 6 7 1017.4 1017.4 -
14/08:00pm 10.0 7.0 7.8 86 1.1 ENE 13 13 7 7 1017.3 1017.3 -
14/07:30pm 10.5 7.9 7.9 84 1.3 ENE 11 13 6 7 1017.3 1017.3 -
14/07:00pm 11.0 8.5 8.4 84 1.3 NE 11 13 6 7 1017.3 1017.3 -
14/06:30pm 11.5 9.0 8.4 81 1.5 NE 11 13 6 7 1017.2 1017.2 0.0
14/06:00pm 12.1 9.7 8.8 80 1.6 NE 11 13 6 7 1017.1 1017.1 0.0
14/05:30pm 13.4 10.3 8.7 73 2.4 NNE 15 17 8 9 1017.1 1017.1 0.0
14/05:00pm 15.2 12.2 9.3 68 3.0 NNE 15 19 8 10 1016.9 1016.9 0.0
14/04:30pm 16.0 12.6 9.0 63 3.6 NNE 17 20 9 11 1017.0 1017.0 0.0
14/04:00pm 16.2 13.1 8.9 62 3.7 NNE 15 20 8 11 1017.1 1017.1 0.0
14/03:30pm 16.1 13.5 9.3 64 3.5 N 13 17 7 9 1017.3 1017.3 0.0
14/03:00pm 16.1 13.4 9.1 63 3.6 N 13 19 7 10 1017.3 1017.3 0.0
14/02:30pm 16.6 14.4 9.3 62 3.8 N 11 15 6 8 1017.3 1017.3 0.0
14/02:00pm 16.2 13.6 9.4 64 3.5 N 13 20 7 11 1017.4 1017.4 0.0
14/01:30pm 16.4 13.7 8.9 61 3.9 N 13 15 7 8 1017.5 1017.5 0.0
14/01:00pm 16.5 13.8 9.0 61 3.9 NNE 13 17 7 9 1017.7 1017.7 0.0
14/12:30pm 16.2 13.2 9.4 64 3.5 N 15 19 8 10 1018.2 1018.2 0.0
14/12:00pm 16.1 13.7 8.8 62 3.7 NNW 11 17 6 9 1018.2 1018.2 0.0
14/11:30am 15.7 12.9 8.7 63 3.6 N 13 17 7 9 1018.1 1018.1 0.0
14/11:00am 15.8 14.5 10.1 69 3.0 N 7 13 4 7 1018.0 1018.0 0.0
14/10:30am 15.5 14.4 10.1 70 2.8 E 6 9 3 5 1017.9 1017.9 0.0
14/10:00am 14.1 13.9 10.5 79 1.9 ESE 2 7 1 4 1017.8 1017.8 0.0
14/09:30am 11.6 10.1 9.0 84 1.3 SSE 7 9 4 5 1017.9 1017.9 0.0
14/09:00am 10.3 9.2 8.6 89 0.8 ENE 4 7 2 4 1018.1 1018.1 5.8
14/08:30am 8.4 6.7 8.3 99 0.0 ESE 7 15 4 8 1017.8 1017.8 5.8
14/08:00am 6.3 4.1 6.2 99 0.0 E 7 9 4 5 1017.6 1017.6 5.8
14/07:30am 4.2 1.8 4.1 99 0.0 E 6 9 3 5 1017.2 1017.2 5.8
14/07:00am 3.3 0.1 3.2 99 0.0 ENE 9 11 5 6 1016.6 1016.6 5.8
14/06:30am 2.7 -0.2 2.6 99 0.0 SE 7 9 4 5 1016.2 1016.2 5.8
14/06:00am 3.0 0.7 2.9 99 0.0 ESE 4 7 2 4 1015.8 1015.8 5.6
14/05:30am 3.6 0.9 3.5 99 0.0 SE 7 9 4 5 1015.3 1015.3 5.6
14/05:00am 3.3 1.1 3.2 99 0.0 ESE 4 7 2 4 1014.6 1014.6 5.6
14/04:30am 3.8 1.1 3.7 99 0.0 ESE 7 9 4 5 1014.6 1014.6 5.6
14/04:00am 3.8 1.1 3.7 99 0.0 SE 7 9 4 5 1014.6 1014.6 5.6
14/03:59am 3.9 1.2 3.8 99 0.0 SE 7 9 4 5 1014.5 1014.5 5.6
14/03:36am 4.0 2.7 3.9 99 0.0 CALM 0 0 0 0 1014.6 1014.6 5.6
14/03:30am 4.0 2.7 3.9 99 0.0 CALM 0 0 0 0 1014.6 1014.6 5.6
14/03:16am 4.1 2.8 4.0 99 0.0 CALM 0 0 0 0 1014.4 1014.4 5.6
14/03:00am 4.3 3.0 4.2 99 0.0 CALM 0 0 0 0 1014.2 1014.2 5.6
14/02:54am 4.7 3.5 4.6 99 0.0 CALM 0 0 0 0 1014.1 1014.1 5.6
14/02:30am 5.3 3.8 5.2 99 0.0 SE 2 6 1 3 1014.0 1014.0 5.6
14/02:29am 5.3 3.8 5.2 99 0.0 SE 2 6 1 3 1013.9 1013.9 5.6
14/02:00am 5.0 2.7 4.9 99 0.0 ESE 6 7 3 4 1013.2 1013.2 5.6
14/01:54am 5.1 3.6 5.0 99 0.0 ESE 2 7 1 4 1013.2 1013.2 5.6
14/01:30am 5.7 4.7 5.6 99 0.0 CALM 0 0 0 0 1013.5 1013.5 5.6
14/01:00am 5.5 3.2 4.9 96 0.3 E 6 6 3 3 1013.3 1013.3 5.6
14/12:30am 6.3 5.2 5.3 93 0.4 CALM 0 0 0 0 1013.1 1013.1 5.6
14/12:00am 7.5 5.3 5.5 87 0.9 NNE 6 9 3 5 1013.1 1013.1 5.6
 
Date/Time
WST
Temp
°C
App
Temp
°C
Dew
Point
°C
Rel
Hum
%
Delta-T
°C
Wind Press
QNH
hPa
Press
MSL
hPa
Rain since
9am
mm
Dir  Spd
km/h
Gust
km/h
Spd
kts
Gust
kts
13/11:30pm 9.8 7.0 7.1 83 1.3 WNW 11 13 6 7 1012.8 1012.8 5.6
13/11:00pm 10.8 9.0 7.9 82 1.4 WNW 7 9 4 5 1012.4 1012.4 5.6
13/10:30pm 10.0 8.4 7.8 86 1.1 SW 6 6 3 3 1011.7 1011.7 5.6
13/10:00pm 10.5 8.6 7.4 81 1.5 SSW 7 11 4 6 1011.2 1011.2 5.6
13/09:30pm 10.5 8.5 8.6 88 0.9 SSW 9 11 5 6 1010.7 1010.7 5.6
13/09:00pm 10.2 9.7 8.0 86 1.1 CALM 0 6 0 3 1010.1 1010.1 5.6
13/08:30pm 11.2 9.1 8.4 83 1.4 W 9 13 5 7 1009.4 1009.4 5.6
13/08:00pm 11.6 9.4 9.2 85 1.2 WNW 11 13 6 7 1008.9 1008.9 5.6
13/07:30pm 11.7 9.8 8.9 83 1.4 W 9 13 5 7 1008.0 1008.0 5.6
13/07:00pm 12.9 10.0 9.5 80 1.7 WSW 15 20 8 11 1007.1 1007.1 5.6
13/06:30pm 13.4 10.2 10.0 80 1.8 WSW 17 22 9 12 1006.6 1006.6 5.6
13/06:00pm 13.4 9.3 10.0 80 1.8 W 22 30 12 16 1005.7 1005.7 5.6
13/05:30pm 14.2 10.8 10.4 78 2.0 WNW 19 24 10 13 1005.0 1005.0 5.6
13/05:00pm 13.5 11.5 11.4 87 1.1 WNW 13 15 7 8 1004.4 1004.4 5.6
13/04:30pm 12.9 8.9 10.4 85 1.3 W 22 30 12 16 1004.0 1004.0 5.6
13/04:09pm 15.9 10.6 9.8 67 3.2 WNW 28 57 15 31 1003.6 1003.6 5.4
13/04:00pm 16.3 11.1 10.2 67 3.2 WNW 28 43 15 23 1003.3 1003.3 5.4
13/03:30pm 16.6 12.7 10.7 68 3.1 WNW 22 32 12 17 1003.2 1003.2 5.4
13/03:00pm 17.1 13.7 12.4 74 2.6 WNW 22 35 12 19 1002.9 1002.9 5.4

Other formats

Comma delimited format used in spreadsheet applications
http://www.bom.gov.au/fwo/IDW60801/IDW60801.95611.axf

JavaScript Object Notation format (JSON) in row-major order
http://www.bom.gov.au/fwo/IDW60801/IDW60801.95611.json

Data quality

Most of these data are generated automatically and are frequently updated. Quality checks on data are not normally performed. It is possible for incorrect values to appear. Refer to information at About Latest Weather Observations and please check the disclaimer before using these data.